Aeroporto :
LOGIN :

Iscrizione | Disclaimer

   EN    FR    IT 

 










Sommario :    VFR   VFR Marginale   IFR   IFR Intensivo   IFR Molto Intensivo
Visibilità : 
Base nubi : 
>= 8 km
>= 3000ft
5 / 8 km
1000 / 3000 ft
1500m / 5 km
500 / 1000 ft
800 / 1500m
200 / 500 ft
< 800m
< 200 ft
Simboli :   Temporali  Nebbia  Neve Forte  Precipitazioni Forti  Vento > 20 kt
SIGMETs :   Varie  Temporali  Ghiacco  Turbolenza  Onda orograficha  Ceneri Vulcaniche






- Altitudine del aeroporto : 83 ft
- Codice IATA : LHR


EGLL - London Heathrow

ULTIMO METAR :
  • 232050Z AUTO 22006KT 9999 -RA NCD 04/03 Q0989

METARs OBSOLETI :
  • 232020Z AUTO 23008KT 9999 NCD 04/03 Q0989
  • 231950Z AUTO 25006KT 9999 FEW032 SCT043 05/03 Q0989 NOSIG
  • 231920Z AUTO 23006KT 9999 BKN031 05/04 Q0989
  • 231850Z AUTO 24005KT 9999 FEW015 SCT024 05/03 Q0988 NOSIG
  • 231820Z 21006KT 180V260 9999 SCT016 BKN021 BKN028 05/03 Q0988
  • 231750Z 19005G15KT 160V240 9999 FEW032 05/03 Q0988
  • 231720Z 24005KT 210V280 9999 -RA FEW021TCU BKN032 BKN048 05/03 Q0988 NOSIG
  • 231650Z 28003KT 250V320 9999 -SHRA FEW033CB SCT045 05/03 Q0987 RESHRA TEMPO SHRA
  • 231620Z 27011KT 5000 SHRA FEW010CB BKN016 BKN022 05/03 Q0987 RESHRA TEMPO 4000 +SHRA BKN012CB

TAF TAF EGLL
Valido dal 23 a 18 ore il 25 a 00 ore UTC


231701Z 2318/2424 26007KT 9999 FEW020
TEMPO 2318/2322 7000 SHRA
PROB30
TEMPO 2318/2320 4000 +SHRA BKN014CB
BECMG 2322/2324 20004KT
TEMPO 2323/2409 6000
PROB40
TEMPO 2402/2409 3000 BR MIFG BKN006
TEMPO 2412/2419 7000 SHRA
PROB40
TEMPO 2412/2419 4000 +SHRA BKN014
BECMG 2422/2424 6000



MetMap, La meteo Aeronautica in un colpo d'occhio ! - Copyright ORBIFLY Dicembre 2007 - Disclaimer

ORBIFLY MET'MAP TEAM :

Programmazione e sviluppo : Alexandra Zaïnal
Concezione : Baudouin d'Aumeries
Supporto tecnico e logistico : Manuel Goepfert
Aiuto : Marc-Olivier Méhu
Aiuto per la traduzione : Arnaldo La Scala




FONTI E CREDITI :

   NOAA